createdAt,value
2022-07-25T00:00:26.091Z,78.62
2022-07-25T00:02:52.579Z,79.57
2022-07-25T00:05:19.179Z,79.05
2022-07-25T00:07:45.819Z,79.15
2022-07-25T00:10:12.562Z,79.08
2022-07-25T00:12:39.188Z,78.53
2022-07-25T00:15:06.320Z,78.62
2022-07-25T00:17:32.895Z,77.97
2022-07-25T00:20:00.748Z,79.08
2022-07-25T00:22:27.230Z,78.77
2022-07-25T00:24:53.705Z,79.30
2022-07-25T00:27:20.176Z,79.66
2022-07-25T00:29:47.024Z,78.40
2022-07-25T00:32:13.726Z,79.11
2022-07-25T00:34:40.211Z,79.04
2022-07-25T00:37:06.892Z,79.81
2022-07-25T00:39:33.426Z,79.63
2022-07-25T00:42:03.361Z,78.42
2022-07-25T00:44:32.613Z,78.85
2022-07-25T00:46:59.574Z,79.46
2022-07-25T00:49:27.137Z,78.82
2022-07-25T00:51:54.392Z,79.40
2022-07-25T00:54:21.925Z,78.94
2022-07-25T00:56:49.504Z,77.84
2022-07-25T00:59:17.127Z,78.67
2022-07-25T01:01:45.566Z,78.93
2022-07-25T01:04:12.207Z,78.34
2022-07-25T01:06:38.744Z,79.52
2022-07-25T01:09:05.362Z,78.37
2022-07-25T01:11:31.837Z,78.95
2022-07-25T01:13:58.521Z,79.78
2022-07-25T01:16:25.119Z,80.00
2022-07-25T01:18:51.953Z,79.56
2022-07-25T01:21:18.569Z,79.80
2022-07-25T01:23:45.221Z,80.35
2022-07-25T01:26:11.714Z,80.07
2022-07-25T01:28:38.263Z,78.96
2022-07-25T01:31:04.833Z,79.82
2022-07-25T01:33:31.454Z,80.67
2022-07-25T01:35:57.966Z,79.67
2022-07-25T01:38:24.435Z,80.75
2022-07-25T01:40:51.605Z,79.18
2022-07-25T01:43:18.156Z,80.58
2022-07-25T01:45:44.750Z,79.05
2022-07-25T01:48:11.423Z,80.30
2022-07-25T01:50:38.143Z,80.66
2022-07-25T01:53:05.461Z,80.23
2022-07-25T01:55:31.951Z,79.98
2022-07-25T01:57:59.172Z,78.99
2022-07-25T02:00:26.380Z,79.95
2022-07-25T02:03:12.832Z,79.57
2022-07-25T02:05:39.436Z,78.52
2022-07-25T02:08:06.003Z,79.00
2022-07-25T02:10:32.991Z,80.05
2022-07-25T02:13:00.975Z,79.35
2022-07-25T02:15:27.554Z,79.26
2022-07-25T02:17:54.080Z,79.34
2022-07-25T02:20:20.598Z,79.19
2022-07-25T02:22:47.084Z,79.38
2022-07-25T02:25:13.541Z,79.26
2022-07-25T02:27:40.250Z,78.92
2022-07-25T02:30:07.535Z,79.56
2022-07-25T02:32:33.995Z,79.27
2022-07-25T02:35:00.458Z,80.13
2022-07-25T02:37:27.163Z,79.28
2022-07-25T02:39:53.677Z,79.42
2022-07-25T02:42:20.142Z,80.52
2022-07-25T02:44:46.685Z,79.87
2022-07-25T02:47:13.404Z,80.27
2022-07-25T02:49:39.861Z,80.13
2022-07-25T02:52:06.357Z,79.61
2022-07-25T02:54:32.822Z,80.86
2022-07-25T02:56:59.301Z,80.92
2022-07-25T02:59:26.066Z,80.05
2022-07-25T03:01:59.156Z,79.62
2022-07-25T03:04:25.816Z,80.66
2022-07-25T03:06:52.467Z,80.40
2022-07-25T03:09:19.421Z,79.92
2022-07-25T03:11:45.962Z,81.13
2022-07-25T03:14:12.517Z,81.16
2022-07-25T03:16:39.010Z,80.83
2022-07-25T03:19:10.172Z,80.14
2022-07-25T03:21:37.655Z,80.34
2022-07-25T03:24:04.401Z,80.64
2022-07-25T03:26:31.223Z,79.97
2022-07-25T03:28:57.739Z,79.63
2022-07-25T03:31:24.634Z,80.65
2022-07-25T03:33:51.166Z,80.47
2022-07-25T03:36:17.714Z,79.56
2022-07-25T03:38:44.246Z,81.01
2022-07-25T03:41:11.692Z,80.35
2022-07-25T03:43:38.194Z,79.42
2022-07-25T03:46:04.827Z,79.31
2022-07-25T03:48:31.407Z,79.52
2022-07-25T03:50:58.879Z,80.32
2022-07-25T03:53:27.682Z,80.05
2022-07-25T03:55:54.140Z,80.41
2022-07-25T03:58:20.716Z,80.46
2022-07-25T04:00:48.752Z,80.71
2022-07-25T04:03:15.356Z,79.44
2022-07-25T04:05:47.120Z,80.20
2022-07-25T04:08:14.237Z,80.93
2022-07-25T04:10:40.720Z,78.92
2022-07-25T04:13:08.306Z,80.71
2022-07-25T04:15:34.847Z,79.57
2022-07-25T04:18:01.347Z,80.08
2022-07-25T04:20:28.741Z,80.47
2022-07-25T04:22:55.927Z,79.41
2022-07-25T04:25:22.485Z,80.04
2022-07-25T04:27:49.008Z,80.24
2022-07-25T04:30:23.947Z,79.71
2022-07-25T04:32:51.791Z,79.36
2022-07-25T04:35:18.253Z,79.49
2022-07-25T04:37:44.705Z,77.89
2022-07-25T04:40:11.767Z,77.60
2022-07-25T04:42:38.288Z,78.15
2022-07-25T04:45:05.239Z,76.82
2022-07-25T04:47:31.736Z,77.82
2022-07-25T04:49:58.233Z,75.66
2022-07-25T04:52:24.756Z,73.78
2022-07-25T04:54:51.288Z,71.28
2022-07-25T04:57:17.761Z,72.61
2022-07-25T04:59:44.513Z,70.53
2022-07-25T05:02:11.672Z,71.59
2022-07-25T05:04:42.189Z,71.52
2022-07-25T05:07:11.708Z,71.03
2022-07-25T05:09:38.324Z,70.99
2022-07-25T05:12:04.917Z,67.67
2022-07-25T05:14:31.422Z,66.90
2022-07-25T05:16:57.874Z,67.92
2022-07-25T05:19:26.042Z,65.75
2022-07-25T05:21:53.065Z,67.43
2022-07-25T05:24:19.591Z,68.04
2022-07-25T05:26:46.072Z,66.45
2022-07-25T05:29:12.623Z,64.38
2022-07-25T05:31:39.125Z,65.52
2022-07-25T05:34:06.099Z,63.63
2022-07-25T05:36:33.189Z,62.62
2022-07-25T05:39:00.568Z,63.05
2022-07-25T05:41:27.308Z,62.12
2022-07-25T05:43:53.876Z,62.09
2022-07-25T05:46:20.567Z,64.25
2022-07-25T05:48:47.122Z,65.57
2022-07-25T05:51:13.690Z,63.73
2022-07-25T05:53:40.238Z,64.03
2022-07-25T05:56:07.031Z,62.54
2022-07-25T05:58:33.566Z,63.27
2022-07-25T06:01:00.127Z,62.69
2022-07-25T06:03:26.874Z,62.21
2022-07-25T06:05:55.474Z,61.02
2022-07-25T06:08:22.603Z,62.22
2022-07-25T06:10:49.262Z,61.29
2022-07-25T06:13:15.756Z,61.12
2022-07-25T06:15:42.251Z,59.99
2022-07-25T06:18:08.850Z,60.43
2022-07-25T06:20:37.376Z,60.68
2022-07-25T06:23:04.920Z,60.34
2022-07-25T06:25:31.387Z,59.93
2022-07-25T06:27:58.400Z,59.56
2022-07-25T06:30:24.939Z,61.59
2022-07-25T06:32:51.462Z,60.02
2022-07-25T06:35:18.596Z,61.09
2022-07-25T06:37:45.356Z,59.18
2022-07-25T06:40:12.186Z,60.47
2022-07-25T06:42:44.014Z,59.95
2022-07-25T06:45:11.196Z,59.19
2022-07-25T06:47:39.312Z,58.74
2022-07-25T06:50:11.278Z,59.36
2022-07-25T06:52:38.582Z,58.33
2022-07-25T06:55:06.482Z,57.95
2022-07-25T06:57:33.107Z,57.52
2022-07-25T06:59:59.642Z,56.22
2022-07-25T07:02:27.142Z,56.67
2022-07-25T07:04:53.616Z,55.98
2022-07-25T07:07:20.084Z,56.67
2022-07-25T07:09:46.566Z,56.00
2022-07-25T07:12:13.044Z,55.68
2022-07-25T07:14:39.621Z,54.15
2022-07-25T07:17:06.130Z,55.96
2022-07-25T07:19:32.793Z,55.83
2022-07-25T07:21:59.458Z,54.75
2022-07-25T07:24:25.982Z,53.96
2022-07-25T07:26:54.231Z,54.39
2022-07-25T07:29:21.045Z,53.52
2022-07-25T07:31:47.735Z,53.56
2022-07-25T07:34:16.611Z,53.50
2022-07-25T07:36:43.225Z,53.40
2022-07-25T07:39:09.960Z,53.33
2022-07-25T07:41:36.581Z,53.96
2022-07-25T07:44:03.191Z,52.55
2022-07-25T07:46:29.736Z,53.69
2022-07-25T07:48:56.341Z,53.90
2022-07-25T07:51:22.949Z,52.85
2022-07-25T07:54:07.777Z,53.29
2022-07-25T07:56:34.264Z,53.26
2022-07-25T07:59:00.736Z,52.99
2022-07-25T08:01:27.274Z,53.29
2022-07-25T08:03:53.870Z,53.45
2022-07-25T08:06:20.388Z,53.37
2022-07-25T08:08:46.854Z,52.05
2022-07-25T08:11:13.518Z,51.89
2022-07-25T08:13:40.143Z,51.80
2022-07-25T08:16:07.125Z,52.82
2022-07-25T08:18:33.751Z,52.62
2022-07-25T08:21:06.235Z,52.87
2022-07-25T08:23:38.610Z,52.75
2022-07-25T08:26:05.806Z,53.15
2022-07-25T08:28:32.489Z,52.73
2022-07-25T08:30:59.131Z,51.92
2022-07-25T08:33:26.230Z,52.33
2022-07-25T08:35:54.802Z,51.79
2022-07-25T08:38:23.764Z,51.59
2022-07-25T08:40:50.858Z,51.33
2022-07-25T08:43:19.037Z,51.57
2022-07-25T08:45:48.036Z,51.33
2022-07-25T08:48:18.166Z,51.35
2022-07-25T08:50:46.171Z,51.59
2022-07-25T08:53:32.573Z,50.97
2022-07-25T08:55:59.935Z,51.30
2022-07-25T08:58:26.471Z,51.29
2022-07-25T09:00:52.978Z,50.21
2022-07-25T09:03:19.545Z,51.00
2022-07-25T09:05:46.272Z,51.05
2022-07-25T09:08:17.520Z,50.85
2022-07-25T09:10:49.318Z,50.42
2022-07-25T09:13:17.244Z,49.57
2022-07-25T09:16:00.303Z,50.16
2022-07-25T09:18:27.670Z,51.02
2022-07-25T09:21:00.588Z,50.85
2022-07-25T09:23:35.387Z,49.87
2022-07-25T09:26:07.586Z,49.34
2022-07-25T09:28:42.515Z,49.50
2022-07-25T09:31:09.793Z,48.79
2022-07-25T09:33:47.575Z,48.00
2022-07-25T09:36:14.735Z,47.73
2022-07-25T09:38:59.607Z,48.40
2022-07-25T09:41:37.372Z,48.89
2022-07-25T09:44:05.230Z,48.95
2022-07-25T09:46:33.292Z,48.38
2022-07-25T09:49:00.989Z,48.25
2022-07-25T09:51:28.576Z,48.51
2022-07-25T09:53:55.116Z,47.88
2022-07-25T09:56:21.673Z,47.98
2022-07-25T09:58:48.197Z,47.00
2022-07-25T10:01:20.540Z,47.53
2022-07-25T10:04:08.344Z,46.96
2022-07-25T10:06:41.013Z,46.84
2022-07-25T10:09:12.418Z,48.39
2022-07-25T10:11:39.360Z,46.70
2022-07-25T10:14:13.070Z,48.00
2022-07-25T10:16:47.237Z,48.86
2022-07-25T10:19:14.405Z,46.87
2022-07-25T10:21:41.006Z,48.28
2022-07-25T10:26:39.847Z,47.55
2022-07-25T10:29:11.288Z,47.06
2022-07-25T10:31:47.643Z,47.66
2022-07-25T10:34:27.221Z,47.04
2022-07-25T10:36:57.031Z,47.50
2022-07-25T10:39:23.950Z,47.74
2022-07-25T10:41:55.755Z,46.95
2022-07-25T10:44:22.278Z,47.72
2022-07-25T10:46:50.165Z,47.65
2022-07-25T10:49:31.026Z,46.97
2022-07-25T10:52:01.416Z,46.63
2022-07-25T10:54:33.741Z,46.31
2022-07-25T10:57:00.412Z,47.03
2022-07-25T10:59:35.984Z,46.95
2022-07-25T11:02:04.426Z,46.66
2022-07-25T11:04:31.345Z,47.70
2022-07-25T11:06:57.978Z,47.56
2022-07-25T11:09:28.619Z,47.01
2022-07-25T11:11:58.294Z,46.66
2022-07-25T11:14:25.977Z,46.99
2022-07-25T11:16:55.171Z,45.61
2022-07-25T11:19:29.584Z,46.64
2022-07-25T11:21:58.542Z,46.42
2022-07-25T11:24:43.246Z,45.15
2022-07-25T11:27:12.953Z,45.32
2022-07-25T11:29:40.151Z,43.42
2022-07-25T11:32:09.108Z,43.51
2022-07-25T11:34:39.200Z,44.19
2022-07-25T11:37:08.258Z,43.05
2022-07-25T11:39:37.326Z,44.27
2022-07-25T11:42:10.714Z,43.90
2022-07-25T11:44:42.975Z,45.17
2022-07-25T11:47:33.391Z,44.39
2022-07-25T11:50:04.630Z,43.11
2022-07-25T11:52:31.060Z,43.37
2022-07-25T11:54:59.478Z,43.21
2022-07-25T11:57:29.130Z,42.80
2022-07-25T11:59:56.224Z,42.73
2022-07-25T12:02:22.847Z,42.99
2022-07-25T12:05:01.329Z,43.57
2022-07-25T12:07:54.958Z,42.75
2022-07-25T12:10:33.421Z,42.67
2022-07-25T12:13:04.181Z,43.32
2022-07-25T12:15:33.703Z,42.81
2022-07-25T12:18:01.846Z,42.91
2022-07-25T12:20:30.659Z,43.08
2022-07-25T12:23:01.851Z,43.82
2022-07-25T12:25:31.174Z,41.97
2022-07-25T12:28:01.635Z,43.04
2022-07-25T12:30:29.679Z,42.81
2022-07-25T12:32:58.688Z,43.25
2022-07-25T12:35:25.447Z,43.94
2022-07-25T12:37:52.869Z,43.19
2022-07-25T12:40:20.185Z,42.26
2022-07-25T12:42:47.628Z,43.66
2022-07-25T12:45:17.938Z,41.89
2022-07-25T12:47:45.922Z,42.85
2022-07-25T12:50:13.726Z,43.47
2022-07-25T12:52:40.999Z,43.62
2022-07-25T12:55:12.356Z,44.32
2022-07-25T12:57:39.537Z,43.25
2022-07-25T13:00:09.274Z,43.58
2022-07-25T13:02:35.996Z,44.04
2022-07-25T13:05:03.503Z,43.68
2022-07-25T13:07:30.107Z,42.81
2022-07-25T13:09:56.588Z,43.41
2022-07-25T13:12:24.077Z,43.99
2022-07-25T13:14:51.238Z,44.61
2022-07-25T13:17:20.460Z,43.19
2022-07-25T13:19:50.077Z,43.31
2022-07-25T13:22:16.664Z,42.97
2022-07-25T13:24:43.586Z,43.56
2022-07-25T13:27:10.070Z,43.24
2022-07-25T13:29:36.619Z,43.67
2022-07-25T13:32:03.225Z,43.34
2022-07-25T13:34:30.882Z,43.41
2022-07-25T13:36:58.338Z,43.16
2022-07-25T13:39:24.879Z,42.69
2022-07-25T13:41:51.350Z,43.64
2022-07-25T13:44:17.846Z,43.91
2022-07-25T13:46:46.342Z,43.07
2022-07-25T13:49:13.197Z,45.22
2022-07-25T13:51:39.774Z,43.49
2022-07-25T13:54:06.319Z,43.77
2022-07-25T13:56:33.200Z,43.37
2022-07-25T13:59:00.029Z,42.44
2022-07-25T14:01:28.578Z,44.03
2022-07-25T14:03:55.464Z,42.31
2022-07-25T14:06:22.186Z,43.59
2022-07-25T14:08:48.723Z,42.17
2022-07-25T14:11:15.230Z,42.60
2022-07-25T14:13:43.519Z,43.49
2022-07-25T14:16:10.478Z,43.04
2022-07-25T14:18:37.071Z,42.83
2022-07-25T14:21:03.801Z,43.39
2022-07-25T14:23:30.442Z,43.54
2022-07-25T14:25:58.438Z,43.23
2022-07-25T14:28:25.174Z,42.72
2022-07-25T14:30:52.326Z,43.05
2022-07-25T14:33:18.897Z,43.97
2022-07-25T14:35:45.421Z,44.14
2022-07-25T14:38:11.937Z,43.81
2022-07-25T14:40:38.482Z,43.71
2022-07-25T14:43:04.972Z,43.79
2022-07-25T14:45:31.575Z,43.54
2022-07-25T14:47:58.339Z,43.91
2022-07-25T14:50:24.917Z,43.45
2022-07-25T14:52:51.400Z,43.33
2022-07-25T14:55:18.729Z,43.86
2022-07-25T14:57:45.305Z,43.82
2022-07-25T15:00:12.433Z,42.13
2022-07-25T15:02:38.929Z,43.71
2022-07-25T15:05:05.835Z,42.09
2022-07-25T15:07:32.348Z,42.40
2022-07-25T15:09:58.814Z,42.44
2022-07-25T15:12:25.395Z,40.96
2022-07-25T15:14:51.855Z,41.80
2022-07-25T15:17:18.377Z,40.34
2022-07-25T15:19:44.854Z,40.35
2022-07-25T15:22:11.428Z,41.30
2022-07-25T15:24:57.656Z,41.33
2022-07-25T15:27:24.673Z,41.44
2022-07-25T15:29:51.170Z,42.14
2022-07-25T15:32:17.814Z,44.64
2022-07-25T15:34:44.319Z,46.48
2022-07-25T15:37:11.732Z,46.39
2022-07-25T15:39:38.245Z,45.17
2022-07-25T15:42:04.836Z,46.47
2022-07-25T15:44:32.664Z,52.67
2022-07-25T15:46:59.319Z,55.55
2022-07-25T15:49:26.032Z,55.96
2022-07-25T15:51:52.668Z,60.55
2022-07-25T15:54:19.164Z,59.43
2022-07-25T15:56:45.748Z,62.98
2022-07-25T15:59:13.207Z,63.03
2022-07-25T16:01:39.889Z,65.92
2022-07-25T16:04:06.660Z,59.17
2022-07-25T16:06:33.265Z,67.31
2022-07-25T16:08:59.907Z,69.05
2022-07-25T16:11:26.736Z,71.29
2022-07-25T16:13:53.871Z,71.22
2022-07-25T16:16:23.350Z,72.94
2022-07-25T16:18:49.904Z,69.71
2022-07-25T16:21:17.072Z,70.26
2022-07-25T16:23:45.428Z,70.41
2022-07-25T16:26:13.131Z,65.57
2022-07-25T16:28:40.722Z,63.99
2022-07-25T16:31:07.390Z,63.38
2022-07-25T16:33:34.121Z,61.09
2022-07-25T16:36:00.765Z,60.60
2022-07-25T16:38:28.832Z,60.56
2022-07-25T16:40:55.433Z,62.26
2022-07-25T16:43:21.927Z,62.63
2022-07-25T16:45:48.525Z,62.27
2022-07-25T16:48:15.073Z,63.03
2022-07-25T16:50:41.562Z,62.57
2022-07-25T16:53:08.049Z,62.70
2022-07-25T16:55:34.649Z,61.96
2022-07-25T16:58:01.123Z,62.43
2022-07-25T17:00:27.674Z,64.08
2022-07-25T17:02:56.091Z,65.32
2022-07-25T17:05:22.697Z,64.65
2022-07-25T17:07:57.054Z,62.92
2022-07-25T17:10:25.802Z,63.23
2022-07-25T17:12:52.265Z,65.14
2022-07-25T17:15:18.844Z,64.87
2022-07-25T17:17:45.420Z,69.06
2022-07-25T17:20:12.239Z,69.82
2022-07-25T17:22:38.912Z,70.07
2022-07-25T17:25:06.512Z,70.71
2022-07-25T17:27:33.127Z,69.96
2022-07-25T17:29:59.685Z,69.96
2022-07-25T17:32:29.773Z,71.25
2022-07-25T17:34:57.225Z,70.64
2022-07-25T17:37:24.331Z,70.58
2022-07-25T17:39:51.047Z,70.59
2022-07-25T17:42:22.236Z,67.96
2022-07-25T17:44:52.816Z,69.53
2022-07-25T17:47:20.195Z,67.18
2022-07-25T17:49:48.317Z,67.77
2022-07-25T17:52:16.051Z,66.69
2022-07-25T17:54:42.630Z,66.87
2022-07-25T17:57:09.963Z,69.29
2022-07-25T17:59:39.834Z,68.68
2022-07-25T18:02:06.435Z,70.72
2022-07-25T18:04:32.990Z,71.48
2022-07-25T18:06:59.577Z,71.12
2022-07-25T18:09:26.093Z,71.60
2022-07-25T18:11:54.551Z,70.95
2022-07-25T18:14:21.577Z,68.45
2022-07-25T18:16:48.159Z,67.07
2022-07-25T18:19:14.631Z,67.00
2022-07-25T18:21:41.212Z,68.02
2022-07-25T18:24:08.224Z,66.70
2022-07-25T18:26:34.910Z,63.93
2022-07-25T18:29:01.634Z,63.16
2022-07-25T18:31:28.534Z,63.11
2022-07-25T18:33:55.153Z,61.41
2022-07-25T18:36:21.934Z,59.40
2022-07-25T18:38:48.557Z,59.20
2022-07-25T18:41:30.849Z,56.77
2022-07-25T18:43:57.572Z,55.25
2022-07-25T18:46:24.613Z,56.13
2022-07-25T18:48:51.849Z,57.99
2022-07-25T18:51:19.459Z,59.72
2022-07-25T18:53:48.224Z,60.00
2022-07-25T18:56:16.341Z,60.02
2022-07-25T18:58:43.149Z,60.72
2022-07-25T19:01:10.342Z,61.96
2022-07-25T19:03:37.581Z,62.25
2022-07-25T19:06:06.815Z,62.95
2022-07-25T19:08:33.331Z,64.18
2022-07-25T19:11:00.049Z,64.21
2022-07-25T19:13:48.329Z,64.69
2022-07-25T19:16:13.326Z,65.93
2022-07-25T19:18:41.686Z,66.23
2022-07-25T19:21:08.192Z,66.06
2022-07-25T19:23:34.965Z,66.66
2022-07-25T19:26:02.469Z,67.90
2022-07-25T19:28:29.443Z,67.97
2022-07-25T19:30:57.055Z,68.77
2022-07-25T19:33:24.314Z,68.96
2022-07-25T19:35:51.019Z,69.87
2022-07-25T19:38:19.504Z,70.50
2022-07-25T19:40:46.080Z,71.06
2022-07-25T19:43:12.562Z,71.35
2022-07-25T19:45:39.371Z,71.86
2022-07-25T19:48:06.955Z,72.47
2022-07-25T19:50:34.127Z,72.17
2022-07-25T19:53:01.391Z,72.71
2022-07-25T19:55:28.534Z,73.15
2022-07-25T19:57:55.226Z,73.61
2022-07-25T20:00:22.035Z,73.56
2022-07-25T20:02:48.758Z,74.07
2022-07-25T20:05:17.118Z,74.06
2022-07-25T20:07:43.686Z,73.47
2022-07-25T20:10:10.705Z,74.09
2022-07-25T20:12:37.843Z,74.55
2022-07-25T20:15:04.968Z,74.53
2022-07-25T20:17:31.467Z,75.12
2022-07-25T20:19:58.002Z,75.40
2022-07-25T20:22:24.539Z,74.95
2022-07-25T20:24:51.077Z,75.54
2022-07-25T20:27:17.743Z,76.07
2022-07-25T20:29:44.399Z,77.42
2022-07-25T20:32:10.916Z,76.92
2022-07-25T20:34:37.550Z,77.34
2022-07-25T20:37:04.056Z,78.79
2022-07-25T20:39:30.549Z,78.16
2022-07-25T20:41:57.125Z,79.23
2022-07-25T20:44:23.653Z,78.94
2022-07-25T20:46:51.505Z,79.76
2022-07-25T20:49:18.080Z,79.15
2022-07-25T20:51:44.671Z,79.29
2022-07-25T20:54:11.264Z,79.83
2022-07-25T20:56:37.828Z,79.73
2022-07-25T20:59:04.583Z,80.25
2022-07-25T21:01:31.323Z,79.59
2022-07-25T21:03:57.916Z,80.23
2022-07-25T21:06:27.090Z,81.27
2022-07-25T21:08:54.102Z,81.51
2022-07-25T21:11:21.118Z,80.30
2022-07-25T21:13:47.681Z,80.07
2022-07-25T21:16:14.622Z,80.11
2022-07-25T21:18:41.352Z,80.95
2022-07-25T21:21:12.119Z,82.06
2022-07-25T21:23:38.949Z,82.10
2022-07-25T21:26:05.719Z,82.12
2022-07-25T21:28:32.216Z,83.27
2022-07-25T21:30:58.796Z,85.08
2022-07-25T21:33:25.318Z,84.91
2022-07-25T21:35:53.758Z,83.79
2022-07-25T21:38:26.826Z,85.71
2022-07-25T21:40:56.635Z,85.11
2022-07-25T21:43:23.380Z,84.19
2022-07-25T21:45:50.224Z,83.80
2022-07-25T21:48:16.705Z,83.52
2022-07-25T21:50:48.685Z,82.54
2022-07-25T21:53:16.926Z,82.45
2022-07-25T21:55:43.423Z,82.54
2022-07-25T21:58:09.977Z,83.45
2022-07-25T22:00:41.709Z,85.17
2022-07-25T22:03:11.945Z,85.25
2022-07-25T22:05:40.048Z,85.35
2022-07-25T22:08:06.614Z,85.00
2022-07-25T22:10:33.565Z,85.08
2022-07-25T22:13:00.233Z,84.37
2022-07-25T22:15:26.847Z,85.45
2022-07-25T22:17:53.419Z,86.44
2022-07-25T22:20:20.007Z,86.49
2022-07-25T22:22:49.729Z,87.24
2022-07-25T22:25:17.138Z,87.04
2022-07-25T22:27:43.829Z,88.61
2022-07-25T22:30:16.182Z,87.17
2022-07-25T22:32:45.946Z,87.72
2022-07-25T22:35:12.501Z,88.44
2022-07-25T22:37:39.034Z,88.94
2022-07-25T22:40:06.186Z,87.87
2022-07-25T22:42:32.636Z,87.69
2022-07-25T22:44:59.139Z,87.86
2022-07-25T22:47:25.620Z,88.39
2022-07-25T22:49:52.071Z,88.49
2022-07-25T22:52:18.592Z,87.16
2022-07-25T22:54:45.131Z,88.13
2022-07-25T22:57:11.666Z,87.15
2022-07-25T22:59:38.134Z,87.74
2022-07-25T23:02:04.817Z,88.86
2022-07-25T23:04:31.448Z,88.38
2022-07-25T23:06:57.996Z,87.79
2022-07-25T23:09:24.535Z,87.55
2022-07-25T23:12:00.304Z,88.28
2022-07-25T23:14:26.903Z,89.60
2022-07-25T23:17:11.855Z,90.12
2022-07-25T23:19:38.393Z,90.54
2022-07-25T23:22:04.999Z,91.11
2022-07-25T23:24:34.494Z,91.68
2022-07-25T23:27:04.463Z,92.58
2022-07-25T23:29:30.955Z,92.45
2022-07-25T23:31:57.464Z,92.51
2022-07-25T23:34:23.985Z,91.62
2022-07-25T23:36:50.583Z,91.62
2022-07-25T23:39:17.150Z,92.53
2022-07-25T23:41:43.739Z,93.21
2022-07-25T23:44:11.048Z,93.23
2022-07-25T23:46:38.603Z,92.96
2022-07-25T23:49:06.524Z,92.93
2022-07-25T23:51:33.344Z,93.00
2022-07-25T23:53:59.971Z,93.65
2022-07-25T23:56:26.514Z,93.45
2022-07-25T23:58:53.137Z,93.60
